Time;durP1;ratioP1;P1;durP2;ratioP2;P2;SDS_P1;SDS_P2;PMS_P1;PMS_P2;Temp;Humidity;BMP_temperature;BMP_pressure;BME280_temperature;BME280_humidity;BME280_pressure;Samples;Min_cycle;Max_cycle;Signal;HPM_P1;HPM_P2
2022/10/04 00:02:44;;;;;;;15.63;8.55;;;;;;;11.12;100.00;102289.78;5069043;28;20198;-67
2022/10/04 00:05:15;;;;;;;17.27;8.55;;;;;;;11.10;100.00;102294.44;5056460;28;20086;-67
2022/10/04 00:07:46;;;;;;;12.48;7.85;;;;;;;11.06;100.00;102288.59;5068766;28;20055;-67
2022/10/04 00:10:15;;;;;;;;;;;;;;;11.09;100.00;102290.94;5069127;28;20083;-67
2022/10/04 00:12:48;;;;;;;16.52;8.57;;;;;;;11.07;100.00;102289.44;5068888;28;19908;-67
2022/10/04 00:15:31;;;;;;;11.73;6.93;;;;;;;11.04;100.00;102279.91;5068896;28;20024;-67
2022/10/04 00:18:09;;;;;;;17.05;9.30;;;;;;;11.03;100.00;102283.59;5068942;28;20559;-67
2022/10/04 00:20:50;;;;;;;14.43;9.00;;;;;;;11.02;100.00;102281.06;5068797;28;20154;-67
2022/10/04 00:23:22;;;;;;;15.37;8.57;;;;;;;11.02;100.00;102281.91;5068841;28;20107;-68
2022/10/04 00:25:47;;;;;;;12.90;7.70;;;;;;;11.02;100.00;102270.41;5068878;28;20062;-67
2022/10/04 00:28:18;;;;;;;16.23;9.07;;;;;;;11.04;100.00;102277.25;5068852;28;20037;-67
2022/10/04 00:30:44;;;;;;;19.83;8.75;;;;;;;11.04;100.00;102268.41;5068654;28;20056;-68
2022/10/04 00:33:10;;;;;;;13.32;7.10;;;;;;;11.03;100.00;102258.72;5068740;28;20089;-67
2022/10/04 00:35:35;;;;;;;16.60;7.50;;;;;;;11.05;100.00;102270.06;5071046;28;20043;-67
2022/10/04 00:38:12;;;;;;;15.02;9.25;;;;;;;11.03;100.00;102256.91;5072238;28;20032;-67
2022/10/04 00:41:03;;;;;;;16.38;8.70;;;;;;;11.02;100.00;102260.53;5072154;28;20043;-67
2022/10/04 00:43:36;;;;;;;17.67;9.55;;;;;;;10.97;100.00;102250.34;5072429;28;20024;-67
2022/10/04 00:46:10;;;;;;;15.55;8.73;;;;;;;11.00;100.00;102267.06;5072335;28;20059;-67
2022/10/04 00:48:47;;;;;;;15.45;8.35;;;;;;;10.99;100.00;102255.53;5072383;28;20024;-64
2022/10/04 00:51:31;;;;;;;16.08;8.73;;;;;;;10.97;100.00;102254.88;5072099;28;20028;-64
2022/10/04 00:54:17;;;;;;;17.13;7.95;;;;;;;10.95;100.00;102256.84;5072182;28;20093;-64
2022/10/04 00:56:51;;;;;;;16.52;9.25;;;;;;;10.96;100.00;102263.88;5072071;28;20021;-64
2022/10/04 00:59:34;;;;;;;16.25;8.15;;;;;;;10.92;100.00;102265.19;5071974;28;20052;-64
2022/10/04 01:02:16;;;;;;;15.77;7.75;;;;;;;10.89;100.00;102260.19;5071508;28;20025;-64
2022/10/04 01:04:41;;;;;;;;;;;;;;;10.90;100.00;102249.38;5072037;28;20090;-64
2022/10/04 01:07:10;;;;;;;14.70;7.67;;;;;;;10.89;100.00;102244.19;5072252;28;19920;-64
2022/10/04 01:09:43;;;;;;;15.73;8.38;;;;;;;10.87;100.00;102236.34;5071524;28;20483;-64
2022/10/04 01:12:20;;;;;;;18.42;10.00;;;;;;;10.83;100.00;102223.50;5071765;28;20123;-64
2022/10/04 01:15:06;;;;;;;20.27;9.85;;;;;;;10.85;100.00;102224.16;5070434;28;20020;-64
2022/10/04 01:17:31;;;;;;;15.98;9.82;;;;;;;10.74;100.00;102203.94;5071945;28;20043;-64
2022/10/04 01:19:57;;;;;;;14.23;8.82;;;;;;;10.80;100.00;102213.97;5071790;28;20028;-64
2022/10/04 01:22:36;;;;;;;19.67;9.60;;;;;;;10.81;100.00;102212.13;5071663;28;20028;-64
2022/10/04 01:25:02;;;;;;;15.40;8.65;;;;;;;10.81;100.00;102217.47;5070460;28;20028;-64
2022/10/04 01:27:37;;;;;;;17.10;9.70;;;;;;;10.82;100.00;102225.34;5071527;28;20491;-64
2022/10/04 01:30:08;;;;;;;13.68;8.48;;;;;;;10.83;100.00;102223.50;5071371;28;20033;-64
2022/10/04 01:32:33;;;;;;;15.25;8.73;;;;;;;10.80;100.00;102213.16;5071372;28;20142;-64
2022/10/04 01:34:59;;;;;;;16.10;9.13;;;;;;;10.76;100.00;102220.63;5071400;28;20122;-65
2022/10/04 01:37:25;;;;;;;14.43;8.25;;;;;;;10.72;100.00;102221.97;5071468;28;20036;-64
2022/10/04 01:39:51;;;;;;;14.60;9.57;;;;;;;10.68;100.00;102217.94;5071235;28;20040;-64
2022/10/04 01:42:31;;;;;;;15.93;8.30;;;;;;;10.67;100.00;102209.13;5070837;28;20032;-64
2022/10/04 01:44:59;;;;;;;16.85;9.25;;;;;;;10.68;100.00;102210.78;5071006;28;20077;-64
2022/10/04 01:47:47;;;;;;;15.60;10.15;;;;;;;10.71;100.00;102207.78;5070558;28;20024;-64
2022/10/04 01:50:19;;;;;;;13.85;8.82;;;;;;;10.70;100.00;102203.44;5070956;28;20035;-64
2022/10/04 01:52:52;;;;;;;12.88;8.50;;;;;;;10.72;100.00;102201.47;5071139;28;20035;-64
2022/10/04 01:55:33;;;;;;;16.70;9.02;;;;;;;10.72;100.00;102196.13;5071023;28;20074;-64
2022/10/04 01:58:18;;;;;;;17.15;8.80;;;;;;;10.74;100.00;102201.28;5070985;28;20032;-64
2022/10/04 02:00:58;;;;;;;16.20;8.30;;;;;;;10.74;100.00;102188.78;5070794;28;20062;-64
2022/10/04 02:04:08;;;;;;;19.08;9.95;;;;;;;10.76;100.00;102196.63;5071146;28;20051;-65
2022/10/04 02:06:37;;;;;;;19.35;8.55;;;;;;;10.75;100.00;102189.63;5070321;28;20129;-64
2022/10/04 02:09:12;;;;;;;15.73;9.10;;;;;;;10.77;100.00;102182.28;5069160;28;20057;-64
2022/10/04 02:11:40;;;;;;;17.75;9.23;;;;;;;10.77;100.00;102182.28;5070586;28;20111;-64
2022/10/04 02:14:14;;;;;;;17.33;9.65;;;;;;;10.74;100.00;102178.13;5070611;28;20150;-64
2022/10/04 02:16:44;;;;;;;17.20;8.80;;;;;;;10.77;100.00;102179.63;5070132;28;20434;-64
2022/10/04 02:19:10;;;;;;;15.60;9.38;;;;;;;10.78;100.00;102164.44;5070445;28;20017;-64
2022/10/04 02:21:36;;;;;;;13.65;8.88;;;;;;;10.75;100.00;102153.09;5070262;28;20182;-64
2022/10/04 02:24:03;;;;;;;21.30;10.48;;;;;;;10.70;100.00;102139.41;5070486;28;20111;-64
2022/10/04 02:26:28;;;;;;;15.77;8.57;;;;;;;10.66;100.00;102131.91;5070375;28;20028;-64
2022/10/04 02:28:54;;;;;;;17.70;8.70;;;;;;;10.64;100.00;102133.91;5070207;28;20033;-64
2022/10/04 02:34:08;;;;;;;21.65;11.27;;;;;;;10.58;100.00;102135.38;5070503;28;20055;-65
2022/10/04 02:36:35;;;;;;;19.95;9.77;;;;;;;10.56;100.00;102140.06;5070103;28;20058;-64
2022/10/04 02:39:25;;;;;;;18.55;9.73;;;;;;;10.58;100.00;102145.22;5070068;28;20380;-65
2022/10/04 02:41:56;;;;;;;20.65;9.63;;;;;;;10.54;100.00;102142.06;5070012;28;20071;-65
2022/10/04 02:44:42;;;;;;;17.27;9.77;;;;;;;10.53;100.00;102129.72;5069777;28;20024;-64
2022/10/04 02:47:15;;;;;;;19.38;9.32;;;;;;;10.48;100.00;102124.06;5069793;28;20116;-64
2022/10/04 02:49:44;;;;;;;18.42;10.10;;;;;;;10.44;100.00;102128.88;5069877;28;20024;-64
2022/10/04 02:52:25;;;;;;;15.00;9.82;;;;;;;10.39;100.00;102117.88;5069986;28;20036;-64
2022/10/04 02:55:05;;;;;;;17.58;9.25;;;;;;;10.37;100.00;102108.34;5069902;28;20085;-64
2022/10/04 02:57:33;;;;;;;21.95;12.48;;;;;;;10.34;100.00;102108.69;5069766;28;20038;-64
2022/10/04 03:00:08;;;;;;;18.92;9.45;;;;;;;10.31;100.00;102096.53;5069748;28;20493;-64
2022/10/04 03:02:33;;;;;;;22.23;10.82;;;;;;;10.27;100.00;102112.03;5069814;28;20107;-64
2022/10/04 03:05:05;;;;;;;14.35;9.10;;;;;;;10.24;100.00;102093.66;5069760;28;20133;-65
2022/10/04 03:07:33;;;;;;;18.58;9.80;;;;;;;10.23;100.00;102089.31;5069600;28;20082;-65
2022/10/04 03:10:00;;;;;;;20.00;10.50;;;;;;;10.22;100.00;102089.50;5067919;28;20498;-64
2022/10/04 03:12:25;;;;;;;16.80;9.40;;;;;;;10.19;100.00;102084.47;5068324;28;20032;-64
2022/10/04 03:14:54;;;;;;;17.05;9.77;;;;;;;10.15;100.00;102083.97;5069291;28;20044;-64
2022/10/04 03:17:20;;;;;;;16.73;8.88;;;;;;;10.15;100.00;102083.13;5069521;28;20060;-64
2022/10/04 03:19:49;;;;;;;14.43;9.60;;;;;;;10.08;100.00;102073.09;5069606;28;20021;-64
2022/10/04 03:22:15;;;;;;;14.30;8.70;;;;;;;10.17;100.00;102087.31;5069429;28;20025;-64
2022/10/04 03:24:46;;;;;;;18.20;9.25;;;;;;;10.16;100.00;102088.28;5069455;28;20035;-64
2022/10/04 03:27:25;;;;;;;16.48;9.77;;;;;;;10.13;100.00;102083.28;5069336;28;20079;-64
2022/10/04 03:29:52;;;;;;;17.25;9.30;;;;;;;10.10;100.00;102079.09;5069213;28;20028;-64
2022/10/04 03:32:19;;;;;;;15.85;9.82;;;;;;;10.06;100.00;102072.44;5069299;28;20032;-64
2022/10/04 03:34:54;;;;;;;16.13;8.50;;;;;;;10.01;100.00;102069.44;5069327;28;20028;-64
2022/10/04 03:37:20;;;;;;;16.05;8.40;;;;;;;9.97;100.00;102065.41;5069543;28;20851;-65
2022/10/04 03:39:49;;;;;;;17.17;10.00;;;;;;;9.92;100.00;102064.25;5069327;28;20020;-64
2022/10/04 03:42:18;;;;;;;23.10;9.68;;;;;;;9.92;100.00;102065.06;5069316;28;20426;-64
2022/10/04 03:44:45;;;;;;;17.63;8.35;;;;;;;9.91;100.00;102066.09;5068805;28;20034;-65
2022/10/04 03:47:16;;;;;;;16.80;9.02;;;;;;;9.89;100.00;102065.41;5068668;28;20028;-65
2022/10/04 03:49:43;;;;;;;17.67;9.23;;;;;;;9.86;100.00;102068.41;5069060;28;20472;-64
2022/10/04 03:52:19;;;;;;;19.75;9.30;;;;;;;9.85;100.00;102066.72;5068981;28;20037;-65
2022/10/04 03:54:46;;;;;;;16.25;8.50;;;;;;;9.80;100.00;102066.38;5069059;28;20032;-65
2022/10/04 03:57:12;;;;;;;18.70;8.15;;;;;;;9.73;100.00;102062.69;5069164;28;20082;-64
2022/10/04 03:59:38;;;;;;;18.55;8.82;;;;;;;9.74;100.00;102061.69;5067770;28;20434;-64
2022/10/04 04:02:25;;;;;;;15.10;8.60;;;;;;;9.73;100.00;102054.69;5069159;28;20029;-64
2022/10/04 04:05:20;;;;;;;14.13;7.30;;;;;;;9.71;100.00;102048.69;5069062;28;20055;-64
2022/10/04 04:07:56;;;;;;;14.60;7.95;;;;;;;9.67;100.00;102042.88;5068969;28;20123;-66
2022/10/04 04:10:26;;;;;;;14.82;8.18;;;;;;;9.65;100.00;102040.34;5070952;28;20969;-67
2022/10/04 04:13:04;;;;;;;15.27;7.75;;;;;;;9.65;100.00;102040.34;5072671;28;20525;-67
2022/10/04 04:15:32;;;;;;;16.33;7.65;;;;;;;9.65;100.00;102044.84;5073062;28;20380;-67
2022/10/04 04:18:04;;;;;;;18.52;9.43;;;;;;;9.61;100.00;102044.31;5072991;28;20551;-67
2022/10/04 04:20:35;;;;;;;15.15;9.07;;;;;;;9.56;100.00;102044.00;5072501;28;20424;-67
2022/10/04 04:23:23;;;;;;;13.25;8.52;;;;;;;9.54;100.00;102039.81;5072785;28;20017;-67
2022/10/04 04:25:53;;;;;;;17.25;8.38;;;;;;;9.53;100.00;102048.78;5072275;28;20115;-67
2022/10/04 04:28:28;;;;;;;20.23;10.43;;;;;;;9.51;100.00;102042.78;5072676;28;20099;-67
2022/10/04 04:31:08;;;;;;;17.55;8.55;;;;;;;9.47;100.00;102044.94;5072557;28;20384;-67
2022/10/04 04:33:43;;;;;;;15.60;8.13;;;;;;;9.44;100.00;102050.59;5072592;28;20025;-67
2022/10/04 04:36:11;;;;;;;15.77;8.27;;;;;;;9.41;100.00;102053.56;5072481;28;20055;-67
2022/10/04 04:39:32;;;;;;;16.63;7.80;;;;;;;9.39;100.00;102042.25;5072416;28;20025;-67
2022/10/04 04:41:23;;;;;;;17.65;9.15;;;;;;;9.36;100.00;102046.06;5072220;28;20121;-67
2022/10/04 04:43:49;;;;;;;19.33;10.32;;;;;;;9.36;100.00;102047.88;5072243;28;20032;-67
2022/10/04 04:46:14;;;;;;;18.00;7.95;;;;;;;9.36;100.00;102037.25;5072423;28;20024;-67
2022/10/04 04:48:44;;;;;;;13.80;7.68;;;;;;;9.36;100.00;102037.25;5071820;28;20507;-67
2022/10/04 04:51:19;;;;;;;16.90;8.77;;;;;;;9.34;100.00;102032.06;5072196;28;20040;-68
2022/10/04 04:53:46;;;;;;;14.45;7.45;;;;;;;9.34;100.00;102034.72;5072120;28;20109;-67
2022/10/04 04:56:18;;;;;;;18.15;9.48;;;;;;;9.31;100.00;102021.75;5072216;28;20173;-67
2022/10/04 04:58:45;;;;;;;16.23;8.18;;;;;;;9.33;100.00;102024.25;5072188;28;20024;-67
2022/10/04 05:01:34;;;;;;;15.07;8.10;;;;;;;9.38;100.00;102025.44;5072069;28;20027;-67
2022/10/04 05:04:08;;;;;;;21.02;9.43;;;;;;;9.40;100.00;102022.59;5071857;28;20436;-67
2022/10/04 05:06:37;;;;;;;12.18;6.75;;;;;;;9.40;100.00;102026.09;5071949;28;20090;-67
2022/10/04 05:09:04;;;;;;;16.30;8.43;;;;;;;9.39;100.00;102023.59;5071579;28;20044;-67
2022/10/04 05:11:36;;;;;;;14.20;6.53;;;;;;;9.38;100.00;102024.59;5071782;28;20472;-67
2022/10/04 05:14:08;;;;;;;12.43;6.80;;;;;;;9.37;100.00;102026.41;5071885;28;20055;-67
2022/10/04 05:16:45;;;;;;;15.95;7.25;;;;;;;9.32;100.00;102020.72;5071556;28;20479;-67
2022/10/04 05:19:36;;;;;;;14.52;7.60;;;;;;;9.35;100.00;102016.91;5071830;28;20467;-67
2022/10/04 05:22:10;;;;;;;14.15;6.50;;;;;;;9.34;100.00;102023.25;5070445;28;20020;-67
2022/10/04 05:24:40;;;;;;;14.55;7.53;;;;;;;9.32;100.00;102026.06;5071764;28;20035;-67
2022/10/04 05:27:16;;;;;;;17.27;8.32;;;;;;;9.31;100.00;102031.56;5071658;28;20022;-67
2022/10/04 05:30:03;;;;;;;16.40;7.68;;;;;;;9.30;100.00;102029.88;5071415;28;20051;-67
2022/10/04 05:32:52;;;;;;;12.85;7.45;;;;;;;9.29;100.00;102029.03;5071567;28;20025;-67
2022/10/04 05:35:20;;;;;;;12.90;6.80;;;;;;;9.26;100.00;102032.03;5071312;28;20056;-67
2022/10/04 05:38:04;;;;;;;12.38;6.60;;;;;;;9.24;100.00;102036.66;5071421;28;20353;-67
2022/10/04 05:40:48;;;;;;;14.20;6.80;;;;;;;9.25;100.00;102038.34;5071343;28;20036;-67
2022/10/04 05:43:31;;;;;;;14.07;6.90;;;;;;;9.24;100.00;102036.66;5071357;28;20431;-67
2022/10/04 05:46:28;;;;;;;14.48;6.35;;;;;;;9.26;100.00;102036.53;5071123;28;20433;-67
2022/10/04 05:48:59;;;;;;;13.73;6.43;;;;;;;9.25;100.00;102049.00;5070961;28;20013;-67
2022/10/04 05:51:32;;;;;;;16.63;7.83;;;;;;;9.26;100.00;102045.34;5071092;28;20379;-67
2022/10/04 05:54:02;;;;;;;15.65;6.95;;;;;;;9.27;100.00;102038.19;5071005;28;20094;-67
2022/10/04 05:56:50;;;;;;;13.10;6.20;;;;;;;9.25;100.00;102041.00;5070760;28;20027;-67
2022/10/04 05:59:36;;;;;;;14.98;7.43;;;;;;;9.24;100.00;102043.81;5070885;28;20035;-67
2022/10/04 06:02:20;;;;;;;14.15;6.90;;;;;;;9.24;100.00;102051.81;5059224;28;20036;-67
2022/10/04 06:05:19;;;;;;;14.15;6.53;;;;;;;9.26;100.00;102053.31;5070696;28;20039;-67
2022/10/04 06:08:01;;;;;;;16.80;6.72;;;;;;;9.29;100.00;102057.50;5070595;28;20035;-67
2022/10/04 06:10:29;;;;;;;16.13;7.30;;;;;;;9.30;100.00;102053.81;5070687;28;20037;-67
2022/10/04 06:13:06;;;;;;;14.20;7.20;;;;;;;9.32;100.00;102054.50;5070451;28;20032;-67
2022/10/04 06:15:50;;;;;;;13.23;6.60;;;;;;;9.33;100.00;102049.03;5070569;28;20395;-67
2022/10/04 06:18:40;;;;;;;11.18;6.03;;;;;;;9.32;100.00;102049.19;5070447;28;20050;-67
2022/10/04 06:21:20;;;;;;;9.43;5.43;;;;;;;9.36;100.00;102042.56;5070451;28;20048;-67
2022/10/04 06:24:13;;;;;;;14.35;6.20;;;;;;;9.38;100.00;102049.41;5070495;28;20107;-67
2022/10/04 06:26:47;;;;;;;12.23;5.72;;;;;;;9.38;100.00;102045.91;5065233;28;20051;-67
2022/10/04 06:29:20;;;;;;;14.18;6.25;;;;;;;9.36;100.00;102039.91;5070268;28;20028;-67
2022/10/04 06:32:13;;;;;;;13.85;6.28;;;;;;;9.38;100.00;102044.06;5070194;28;20067;-67
2022/10/04 06:34:54;;;;;;;11.10;7.05;;;;;;;9.40;100.00;102052.72;5070199;28;20093;-67
2022/10/04 06:37:42;;;;;;;9.63;5.28;;;;;;;9.43;100.00;102049.75;5070005;28;20123;-67
2022/10/04 06:40:30;;;;;;;13.35;5.97;;;;;;;9.43;100.00;102040.91;5069980;28;20028;-67
2022/10/04 06:43:05;;;;;;;17.90;6.05;;;;;;;9.42;100.00;102031.25;5069981;28;20107;-67
2022/10/04 06:46:21;;;;;;;11.73;6.10;;;;;;;9.49;100.00;102034.13;5069517;28;20479;-67
2022/10/04 06:48:50;;;;;;;13.23;5.93;;;;;;;9.53;100.00;102036.28;5027873;28;20037;-67
2022/10/04 06:51:28;;;;;;;11.35;5.97;;;;;;;9.57;100.00;102028.84;5064937;28;20044;-67
2022/10/04 06:54:35;;;;;;;13.48;7.00;;;;;;;9.58;100.00;102036.66;5069629;28;20036;-67
2022/10/04 06:57:31;;;;;;;10.80;5.03;;;;;;;9.59;100.00;102029.53;5049638;28;20036;-67
2022/10/04 07:00:09;;;;;;;12.45;5.28;;;;;;;9.61;100.00;102023.00;5069692;28;20021;-66
2022/10/04 07:02:58;;;;;;;9.60;4.82;;;;;;;9.64;100.00;102032.50;5069665;28;21025;-66
2022/10/04 07:05:45;;;;;;;14.85;6.20;;;;;;;9.64;100.00;102027.19;5069639;28;20036;-66
2022/10/04 07:08:30;;;;;;;12.20;5.40;;;;;;;9.65;100.00;102026.19;5069487;28;20049;-66
2022/10/04 07:11:01;;;;;;;11.43;5.65;;;;;;;9.68;100.00;102028.53;5069590;28;20027;-66
2022/10/04 07:13:27;;;;;;;;;;;;;;;9.74;100.00;102027.88;5069992;28;20060;-66
2022/10/04 07:16:00;;;;;;;10.70;5.10;;;;;;;9.76;100.00;102027.72;5069556;28;19965;-66
2022/10/04 07:18:55;;;;;;;10.15;4.78;;;;;;;9.77;100.00;102029.38;5069455;28;20111;-66
2022/10/04 07:21:23;;;;;;;9.25;4.60;;;;;;;9.78;100.00;102028.41;5068149;28;20079;-66
2022/10/04 07:23:52;;;;;;;13.32;5.07;;;;;;;9.83;100.00;102028.75;5069283;28;20426;-67
2022/10/04 07:26:44;;;;;;;13.23;6.13;;;;;;;9.82;100.00;102017.28;5069270;28;20479;-67
2022/10/04 07:29:21;;;;;;;16.25;6.30;;;;;;;9.90;100.00;102023.59;5069341;28;20391;-66
2022/10/04 07:32:12;;;;;;;9.95;5.03;;;;;;;10.00;100.00;102026.94;5069381;28;20032;-66
2022/10/04 07:34:45;;;;;;;10.20;5.32;;;;;;;10.06;100.00;102021.81;5069280;28;20034;-66
2022/10/04 07:37:13;;;;;;;11.75;5.47;;;;;;;10.27;100.00;102020.47;5069091;28;20032;-66
2022/10/04 07:39:49;;;;;;;11.18;5.28;;;;;;;10.51;100.00;102020.53;5064908;28;20483;-66
2022/10/04 07:42:29;;;;;;;10.80;5.53;;;;;;;10.59;100.00;102024.19;5064387;28;20040;-66
2022/10/04 07:45:04;;;;;;;11.65;5.38;;;;;;;10.63;100.00;102015.66;5063418;28;20071;-65
2022/10/04 07:47:30;;;;;;;11.75;6.07;;;;;;;10.71;100.00;102028.16;5064358;28;20024;-65
2022/10/04 07:49:57;;;;;;;10.55;5.75;;;;;;;10.80;100.00;102034.34;5063440;28;20488;-66
2022/10/04 07:52:43;;;;;;;12.52;5.40;;;;;;;11.00;100.00;102035.63;5063331;28;20025;-67
2022/10/04 07:55:31;;;;;;;11.40;5.53;;;;;;;11.14;100.00;102034.94;5064578;28;20048;-66
2022/10/04 07:58:06;;;;;;;11.68;5.53;;;;;;;11.23;100.00;102030.41;5064758;28;20124;-66
2022/10/04 08:00:43;;;;;;;10.48;5.55;;;;;;;11.33;100.00;102038.22;5066827;28;20522;-66
2022/10/04 08:03:35;;;;;;;12.02;6.65;;;;;;;11.40;100.00;102033.88;5069136;28;20036;-65
2022/10/04 08:06:19;;;;;;;11.68;5.72;;;;;;;11.53;100.00;102038.66;5068907;28;20066;-65
2022/10/04 08:09:07;;;;;;;13.80;5.13;;;;;;;11.64;100.00;102024.91;5068758;28;20049;-65
2022/10/04 08:11:57;;;;;;;11.55;5.30;;;;;;;11.82;100.00;102022.78;5067434;28;20090;-65
2022/10/04 08:14:49;;;;;;;12.20;4.97;;;;;;;11.94;99.44;102036.59;5068800;28;20531;-65
2022/10/04 08:17:43;;;;;;;11.32;4.45;;;;;;;11.98;99.50;102021.06;5068703;28;20553;-65
2022/10/04 08:20:25;;;;;;;10.50;5.10;;;;;;;12.08;98.75;102019.00;5063949;28;20033;-65
2022/10/04 08:23:17;;;;;;;10.65;4.35;;;;;;;12.21;98.91;102013.88;5068712;28;20028;-65
2022/10/04 08:25:48;;;;;;;11.07;5.32;;;;;;;12.27;98.63;102018.50;5057253;28;20174;-65
2022/10/04 08:32:19;;;;;;;8.27;4.53;;;;;;;12.45;98.01;102018.19;5068632;28;20036;-65
2022/10/04 08:35:06;;;;;;;10.40;5.22;;;;;;;12.57;97.74;102015.09;5066088;28;20040;-65
2022/10/04 08:37:53;;;;;;;11.80;4.95;;;;;;;12.67;95.67;102012.97;5067882;28;20379;-65
2022/10/04 08:40:22;;;;;;;8.70;4.50;;;;;;;12.78;96.24;102022.41;5068562;28;20029;-65
2022/10/04 08:43:07;;;;;;;12.48;6.07;;;;;;;12.87;95.33;102016.81;5068572;28;20395;-65
2022/10/04 08:45:59;;;;;;;10.10;4.93;;;;;;;12.96;95.25;102024.75;5068548;28;20024;-65
2022/10/04 08:48:49;;;;;;;11.82;4.95;;;;;;;12.99;94.31;102024.38;5068558;28;20472;-65
2022/10/04 08:52:03;;;;;;;14.13;5.88;;;;;;;13.10;94.64;102021.25;5068335;28;20028;-65
2022/10/04 08:55:06;;;;;;;12.35;6.15;;;;;;;13.29;95.76;102026.09;5031037;28;20568;-65
2022/10/04 08:57:38;;;;;;;11.43;5.00;;;;;;;13.44;94.49;102034.13;5059887;28;20037;-65
2022/10/04 09:00:21;;;;;;;11.18;5.00;;;;;;;13.59;95.13;102024.19;5071896;28;20109;-65
2022/10/04 09:03:01;;;;;;;13.55;7.00;;;;;;;13.70;92.05;102038.97;5071848;28;20111;-65
2022/10/04 09:05:57;;;;;;;12.68;5.93;;;;;;;13.78;90.28;102021.94;5071662;28;20558;-65
2022/10/04 09:09:00;;;;;;;14.25;5.82;;;;;;;13.76;89.89;102026.66;5071612;28;20051;-65
2022/10/04 09:11:40;;;;;;;10.57;4.90;;;;;;;13.84;91.32;102025.72;5071718;28;20131;-65
2022/10/04 09:14:30;;;;;;;17.00;6.38;;;;;;;13.91;89.48;102023.94;5071345;28;20059;-65
2022/10/04 09:16:58;;;;;;;14.23;5.65;;;;;;;13.93;88.44;102028.09;5070830;28;20029;-65
2022/10/04 09:19:55;;;;;;;12.00;5.53;;;;;;;14.00;88.78;102029.00;5070689;28;20484;-65
2022/10/04 09:22:46;;;;;;;13.73;6.00;;;;;;;14.08;88.01;102035.25;5070648;28;20059;-65
2022/10/04 09:25:27;;;;;;;16.50;5.13;;;;;;;14.11;87.34;102016.09;5071414;28;20099;-65
2022/10/04 09:28:23;;;;;;;12.18;5.70;;;;;;;14.26;90.16;102011.50;5071356;28;20110;-65
2022/10/04 09:31:23;;;;;;;11.90;5.97;;;;;;;14.38;88.69;102015.34;5071290;28;20036;-65
2022/10/04 09:34:27;;;;;;;13.27;5.40;;;;;;;14.46;86.29;102017.88;5058680;28;20040;-65
2022/10/04 09:37:02;;;;;;;11.57;4.47;;;;;;;14.46;84.42;102008.97;5071616;28;20032;-65
2022/10/04 09:39:36;;;;;;;9.52;5.20;;;;;;;14.47;82.29;102003.41;5071246;28;20380;-65
2022/10/04 09:42:16;;;;;;;10.77;3.88;;;;;;;14.51;83.50;102006.53;5071045;28;20463;-65
2022/10/04 09:45:04;;;;;;;11.10;5.90;;;;;;;14.58;83.31;102009.31;5071036;28;20103;-65
2022/10/04 09:47:42;;;;;;;10.75;5.10;;;;;;;14.60;81.33;102009.97;5070829;28;20024;-65
2022/10/04 09:50:28;;;;;;;13.90;5.50;;;;;;;14.66;82.20;101993.06;5070995;28;20043;-65
2022/10/04 09:53:03;;;;;;;10.13;4.65;;;;;;;14.77;82.38;101995.19;5070886;28;20063;-65
2022/10/04 09:55:46;;;;;;;13.93;5.00;;;;;;;14.82;82.77;101995.44;5070992;28;20115;-65
2022/10/04 09:58:14;;;;;;;8.40;4.35;;;;;;;14.85;81.04;102003.09;5070059;28;20055;-65
2022/10/04 10:00:49;;;;;;;6.95;3.75;;;;;;;14.98;82.33;102001.53;5070468;28;20057;-65
2022/10/04 10:03:47;;;;;;;12.57;5.10;;;;;;;15.08;81.46;102004.69;5070487;28;20056;-65
2022/10/04 10:06:48;;;;;;;13.60;4.63;;;;;;;15.19;81.76;102011.38;5070700;28;20066;-65
2022/10/04 10:13:38;;;;;;;12.70;4.90;;;;;;;15.25;81.49;102000.66;5070383;28;20056;-65
2022/10/04 10:15:34;;;;;;;8.05;4.50;;;;;;;15.40;80.12;101994.31;5071021;28;20048;-65
2022/10/04 10:18:26;;;;;;;10.65;5.32;;;;;;;15.46;81.64;101993.53;5070547;28;20025;-65
2022/10/04 10:20:57;;;;;;;11.55;4.47;;;;;;;15.49;78.56;101993.09;5070426;28;20465;-65
2022/10/04 10:23:23;;;;;;;8.43;4.43;;;;;;;15.60;80.79;101987.13;5068324;28;20020;-66
2022/10/04 10:26:37;;;;;;;11.07;4.00;;;;;;;15.67;80.13;101979.94;5065517;28;20134;-66
2022/10/04 10:29:36;;;;;;;10.55;4.63;;;;;;;15.77;80.21;101980.41;5042675;28;20413;-66
2022/10/04 10:32:35;;;;;;;8.27;3.88;;;;;;;15.84;79.72;101982.28;5046953;28;20033;-66
2022/10/04 10:35:23;;;;;;;8.50;3.50;;;;;;;15.87;77.55;101982.69;5068136;28;20040;-66
2022/10/04 10:38:16;;;;;;;9.80;4.40;;;;;;;16.02;79.05;101974.44;5069507;28;20480;-66
2022/10/04 10:40:51;;;;;;;12.80;4.03;;;;;;;16.10;77.28;101973.41;5070114;28;20051;-66
2022/10/04 10:43:17;;;;;;;8.25;3.60;;;;;;;16.13;75.90;101979.19;5070335;28;20421;-66
2022/10/04 10:46:07;;;;;;;10.40;3.90;;;;;;;16.05;75.96;101981.28;5069985;28;20036;-66
2022/10/04 10:48:51;;;;;;;9.75;4.72;;;;;;;16.11;79.73;101983.13;5069921;28;20051;-66
2022/10/04 10:51:24;;;;;;;7.40;3.72;;;;;;;16.11;76.01;101991.19;5069979;28;20016;-66
2022/10/04 10:54:28;;;;;;;10.75;3.88;;;;;;;16.17;79.10;101993.91;5069953;28;20036;-66
2022/10/04 10:57:32;;;;;;;8.57;4.28;;;;;;;16.28;78.36;101988.97;5069907;28;20035;-66
2022/10/04 11:00:32;;;;;;;9.95;3.65;;;;;;;16.40;78.31;101995.34;5069321;28;20106;-66
2022/10/04 11:03:04;;;;;;;6.93;4.22;;;;;;;16.49;74.36;101983.34;5066400;28;20040;-67
2022/10/04 11:06:04;;;;;;;11.60;3.97;;;;;;;16.49;74.31;101980.66;5069578;28;20091;-66
2022/10/04 11:08:44;;;;;;;9.40;4.88;;;;;;;16.49;75.06;101975.28;5066367;28;20040;-66
2022/10/04 11:11:28;;;;;;;9.07;3.63;;;;;;;16.56;76.68;101972.59;5064798;28;20024;-66
2022/10/04 11:14:12;;;;;;;8.40;4.10;;;;;;;16.64;73.67;101969.69;5065265;28;20024;-64
2022/10/04 11:17:08;;;;;;;9.98;4.30;;;;;;;16.60;73.36;101969.25;5065301;28;20475;-64
2022/10/04 11:20:42;;;;;;;11.30;3.75;;;;;;;16.60;74.78;101953.09;5065185;28;20028;-64
2022/10/04 11:23:26;;;;;;;8.23;3.70;;;;;;;16.74;74.70;101964.69;5041549;28;20120;-64
2022/10/04 11:26:25;;;;;;;7.80;3.78;;;;;;;16.81;75.08;101952.03;5042799;28;20472;-64
2022/10/04 11:28:57;;;;;;;8.43;3.40;;;;;;;16.82;72.57;101948.31;5060739;28;20082;-64
2022/10/04 11:31:56;;;;;;;8.13;4.38;;;;;;;16.82;73.06;101942.94;5064658;28;20039;-65
2022/10/04 11:34:30;;;;;;;10.73;5.20;;;;;;;16.86;71.92;101943.34;5064898;28;20028;-65
2022/10/04 11:37:08;;;;;;;10.88;3.88;;;;;;;16.88;71.56;101940.44;5064911;28;20357;-65
2022/10/04 11:39:39;;;;;;;6.32;3.53;;;;;;;16.92;71.44;101941.66;5061858;28;20468;-63
2022/10/04 11:42:35;;;;;;;7.40;3.35;;;;;;;17.00;73.03;101928.78;5064020;28;20103;-64
2022/10/04 11:45:18;;;;;;;6.72;3.60;;;;;;;17.06;71.88;101922.53;5064591;28;20020;-64
2022/10/04 11:47:49;;;;;;;11.27;4.25;;;;;;;17.07;71.35;101924.19;5063958;28;20038;-64
2022/10/04 11:50:40;;;;;;;14.48;5.32;;;;;;;17.10;71.53;101914.84;5064566;28;20962;-65
2022/10/04 11:53:20;;;;;;;8.77;3.90;;;;;;;17.13;69.57;101922.50;5064790;28;20515;-65
2022/10/04 11:56:18;;;;;;;7.47;4.07;;;;;;;17.21;72.32;101916.88;5065024;28;20024;-63
2022/10/04 11:58:55;;;;;;;8.32;3.80;;;;;;;17.33;68.86;101911.63;5054886;28;20044;-68
2022/10/04 12:01:39;;;;;;;5.57;3.30;;;;;;;17.36;68.33;101913.88;5063652;28;20432;-66
2022/10/04 12:04:23;;;;;;;9.07;3.65;;;;;;;17.33;67.67;101914.31;5064750;28;20939;-66
2022/10/04 12:07:10;;;;;;;8.60;3.28;;;;;;;17.28;69.35;101917.66;5064728;28;20035;-67
2022/10/04 12:09:52;;;;;;;10.70;4.28;;;;;;;17.30;70.14;101920.16;5064202;28;20143;-67
2022/10/04 12:12:52;;;;;;;6.95;3.72;;;;;;;17.42;69.82;101920.28;5064115;28;20020;-68
2022/10/04 12:15:37;;;;;;;6.40;2.78;;;;;;;17.53;68.94;101908.81;5063941;28;20037;-66
2022/10/04 12:18:14;;;;;;;7.75;3.78;;;;;;;17.63;67.75;101916.41;5064428;28;20554;-67
2022/10/04 12:21:01;;;;;;;7.28;3.70;;;;;;;17.60;69.74;101911.47;5064279;28;20501;-68
2022/10/04 12:23:38;;;;;;;7.13;3.65;;;;;;;17.46;66.21;101906.16;5063793;28;20063;-64